• location
  • image
mod_vvisit_countermod_vvisit_countermod_vvisit_countermod_vvisit_countermod_vvisit_countermod_vvisit_counter
mod_vvisit_counterToday883
mod_vvisit_counterYesterday534
mod_vvisit_counterThis week2056
mod_vvisit_counterLast week5599
mod_vvisit_counterThis month11902
mod_vvisit_counterLast month23031
mod_vvisit_counterAll days997859

We have: 24 guests, 2 bots online
Your IP: 54.92.163.105
 , 
Today: Oct 16, 2018
Airport / Services

List of services

  

Services of Siauliai International Airport:

 

Leading (follow me)

Ground services

Aircraft loading/unloading

Aircraft parking

Aircraft security

Aircraft fuel supply

Passenger baggage service

Business class passenger service

Submission of information to passengers

Serving meals to passengers and crew

Additional services for aircraft crewmembers

Aviation Security

Dining Cafe

First medical aid

Hotel reservations

Transporting crew to/from the city

Taxi booking 

Border procedures

Customs procedures

 

Today

Wednesday, 17 October 2018

Aviation Weather Forecast

[source: ADDS]
METAR
EYSA 162120Z 21005KT CAVOK 10/06 Q1023 BLU NOSIG =
TAF EYSA 162000Z 1621/1706 VRB04KT CAVOK
TAF
TAF EYSA 162000Z 1621/1706 VRB04KT CAVOK =
SR / SS: 05:02 / 15:24 UTC (EYSA 2018-10-17)

Search

Who's Online

We have 26 guests online

tic logo en